Time;durP1;ratioP1;P1;durP2;ratioP2;P2;SDS_P1;SDS_P2;PMS_P1;PMS_P2;Temp;Humidity;BMP_temperature;BMP_pressure;BME280_temperature;BME280_humidity;BME280_pressure;Samples;Min_cycle;Max_cycle;Signal;HPM_P1;HPM_P2
2023/10/28 00:02:23;;;;;;;9.10;8.30;;;10.20;99.90;;;;;;5054085;28;20478;-70
2023/10/28 00:04:52;;;;;;;8.20;7.00;;;10.20;99.90;;;;;;5056519;28;20456;-70
2023/10/28 00:07:21;;;;;;;7.93;7.13;;;10.20;99.90;;;;;;5056319;28;20469;-69
2023/10/28 00:09:49;;;;;;;8.80;7.90;;;10.30;99.90;;;;;;5056130;28;20540;-70
2023/10/28 00:12:17;;;;;;;11.70;8.53;;;10.30;99.90;;;;;;5056149;28;20437;-69
2023/10/28 00:14:45;;;;;;;8.23;7.47;;;10.30;99.90;;;;;;5056040;28;20430;-69
2023/10/28 00:17:14;;;;;;;8.10;7.30;;;10.30;99.90;;;;;;5055938;28;20456;-70
2023/10/28 00:19:43;;;;;;;8.57;7.50;;;10.30;99.90;;;;;;5056009;28;20935;-69
2023/10/28 00:22:12;;;;;;;8.13;7.37;;;10.30;99.90;;;;;;5055944;28;21044;-69
2023/10/28 00:24:42;;;;;;;8.50;7.60;;;10.30;99.90;;;;;;5055910;28;20476;-69
2023/10/28 00:27:10;;;;;;;8.50;7.70;;;10.30;99.90;;;;;;5055650;28;20844;-69
2023/10/28 00:29:38;;;;;;;7.93;7.20;;;10.30;99.90;;;;;;5055811;28;20488;-70
2023/10/28 00:32:07;;;;;;;8.23;7.43;;;10.30;99.90;;;;;;5037791;28;20447;-70
2023/10/28 00:34:36;;;;;;;7.70;7.00;;;10.30;99.90;;;;;;5056205;28;20469;-70
2023/10/28 00:37:05;;;;;;;8.60;7.80;;;10.30;99.90;;;;;;5037615;28;20491;-70
2023/10/28 00:39:33;;;;;;;8.63;7.77;;;10.30;99.90;;;;;;5037657;28;20466;-70
2023/10/28 00:42:02;;;;;;;8.67;7.87;;;10.30;99.90;;;;;;5037701;28;20446;-70
2023/10/28 00:44:32;;;;;;;8.93;8.13;;;10.30;99.90;;;;;;5055786;28;20517;-70
2023/10/28 00:47:02;;;;;;;8.23;7.43;;;10.30;99.90;;;;;;5055680;28;20519;-69
2023/10/28 00:49:30;;;;;;;8.73;7.93;;;10.30;99.90;;;;;;5037498;28;20520;-70
2023/10/28 00:51:59;;;;;;;7.77;7.07;;;10.30;99.90;;;;;;5055366;28;20537;-70
2023/10/28 00:54:28;;;;;;;7.27;6.57;;;10.30;99.90;;;;;;5037668;28;20447;-70
2023/10/28 00:56:57;;;;;;;8.57;7.73;;;10.30;99.90;;;;;;5037423;28;20449;-69
2023/10/28 00:59:27;;;;;;;7.90;7.10;;;10.30;99.90;;;;;;5055108;28;20460;-70
2023/10/28 01:01:55;;;;;;;8.20;7.40;;;10.30;99.90;;;;;;5055551;28;20832;-70
2023/10/28 01:04:23;;;;;;;8.70;7.90;;;10.30;99.90;;;;;;5037371;28;20529;-70
2023/10/28 01:06:52;;;;;;;9.30;8.10;;;10.30;99.90;;;;;;5037236;28;20466;-70
2023/10/28 01:09:20;;;;;;;8.27;7.40;;;10.30;99.90;;;;;;5037215;28;20450;-70
2023/10/28 01:11:48;;;;;;;8.53;7.73;;;10.30;99.90;;;;;;5037279;28;20504;-70
2023/10/28 01:14:16;;;;;;;8.83;7.93;;;10.30;99.90;;;;;;5035907;28;20504;-70
2023/10/28 01:16:45;;;;;;;8.70;7.90;;;10.30;99.90;;;;;;5037391;28;20442;-70
2023/10/28 01:19:15;;;;;;;8.50;7.70;;;10.30;99.90;;;;;;5055190;28;20458;-70
2023/10/28 01:21:44;;;;;;;9.30;8.40;;;10.30;99.90;;;;;;5037302;28;20493;-70
2023/10/28 01:24:12;;;;;;;9.80;8.83;;;10.30;99.90;;;;;;5037260;28;20495;-70
2023/10/28 01:26:40;;;;;;;8.83;7.93;;;10.30;99.90;;;;;;5054957;28;20977;-70
2023/10/28 01:29:10;;;;;;;9.00;8.10;;;10.30;99.90;;;;;;5054982;28;20458;-70
2023/10/28 01:31:38;;;;;;;9.20;8.30;;;10.30;99.90;;;;;;5036692;28;20489;-70
2023/10/28 01:34:06;;;;;;;9.23;8.33;;;10.30;99.90;;;;;;5054598;28;20808;-70
2023/10/28 01:36:34;;;;;;;9.30;8.40;;;10.30;99.90;;;;;;5054618;28;20985;-70
2023/10/28 01:39:04;;;;;;;8.60;7.70;;;10.30;99.90;;;;;;5036676;28;20476;-70
2023/10/28 01:41:33;;;;;;;9.83;8.57;;;10.30;99.90;;;;;;5036656;28;20438;-70
2023/10/28 01:44:01;;;;;;;8.50;7.70;;;10.30;99.90;;;;;;5054715;28;20523;-70
2023/10/28 01:46:30;;;;;;;9.50;8.60;;;10.30;99.90;;;;;;5054689;28;20437;-70
2023/10/28 01:48:58;;;;;;;11.20;9.67;;;10.30;99.90;;;;;;5036455;28;20519;-70
2023/10/28 01:51:26;;;;;;;9.27;8.27;;;10.30;99.90;;;;;;5054540;28;20464;-70
2023/10/28 01:53:55;;;;;;;10.03;9.07;;;10.30;99.90;;;;;;5052985;28;20442;-70
2023/10/28 01:56:24;;;;;;;10.17;9.20;;;10.30;99.90;;;;;;5054244;28;21052;-70
2023/10/28 01:58:52;;;;;;;10.70;8.60;;;10.30;99.90;;;;;;5036233;28;20902;-70
2023/10/28 02:01:23;;;;;;;11.20;9.60;;;10.30;99.90;;;;;;5036258;28;20465;-70
2023/10/28 02:03:53;;;;;;;10.00;8.87;;;10.30;99.90;;;;;;5054108;28;20923;-70
2023/10/28 02:06:21;;;;;;;10.73;9.63;;;10.30;99.90;;;;;;5053965;28;20438;-70
2023/10/28 02:08:49;;;;;;;10.57;9.57;;;10.30;99.90;;;;;;5053818;28;20851;-70
2023/10/28 02:11:17;;;;;;;11.87;9.90;;;10.30;99.90;;;;;;5053964;28;20437;-69
2023/10/28 02:13:47;;;;;;;11.63;9.67;;;10.30;99.90;;;;;;5036016;28;20482;-70
2023/10/28 02:16:16;;;;;;;11.47;10.27;;;10.40;99.90;;;;;;5035928;28;20449;-70
2023/10/28 02:18:44;;;;;;;10.67;9.50;;;10.30;99.90;;;;;;5052459;28;20470;-70
2023/10/28 02:21:12;;;;;;;12.00;10.60;;;10.30;99.90;;;;;;5054019;28;20442;-70
2023/10/28 02:23:40;;;;;;;11.30;10.13;;;10.30;99.90;;;;;;5053671;28;20831;-69
2023/10/28 02:26:08;;;;;;;11.83;10.23;;;10.40;99.90;;;;;;5053806;28;20438;-70
2023/10/28 02:28:37;;;;;;;10.50;9.40;;;10.40;99.90;;;;;;5053451;28;20501;-70
2023/10/28 02:31:10;;;;;;;11.10;9.83;;;10.30;99.90;;;;;;5035719;28;20449;-70
2023/10/28 02:33:39;;;;;;;11.73;10.50;;;10.40;99.90;;;;;;5036288;28;20474;-70
2023/10/28 02:36:08;;;;;;;11.43;10.27;;;10.40;99.90;;;;;;5053410;28;20947;-70
2023/10/28 02:38:36;;;;;;;12.97;10.67;;;10.40;99.90;;;;;;5053614;28;20568;-70
2023/10/28 02:41:07;;;;;;;12.30;11.00;;;10.40;99.90;;;;;;5053706;28;20434;-70
2023/10/28 02:43:35;;;;;;;13.70;11.07;;;10.40;99.90;;;;;;5035590;28;20935;-70
2023/10/28 02:46:04;;;;;;;12.43;11.13;;;10.40;99.90;;;;;;5035531;28;20870;-70
2023/10/28 02:48:33;;;;;;;11.03;9.93;;;10.30;99.90;;;;;;5051926;28;20527;-70
2023/10/28 02:51:05;;;;;;;13.30;11.90;;;10.40;99.90;;;;;;5053334;28;20444;-70
2023/10/28 02:53:34;;;;;;;12.57;10.13;;;10.30;99.90;;;;;;5035360;28;20461;-70
2023/10/28 02:56:04;;;;;;;12.40;10.73;;;10.30;99.90;;;;;;5035664;28;20504;-70
2023/10/28 02:58:32;;;;;;;13.93;10.87;;;10.30;99.90;;;;;;5035537;28;20888;-70
2023/10/28 03:01:07;;;;;;;17.33;11.17;;;10.30;99.90;;;;;;5052019;28;20442;-70
2023/10/28 03:03:37;;;;;;;12.87;11.60;;;10.30;99.90;;;;;;5053505;28;20418;-70
2023/10/28 03:06:06;;;;;;;13.37;11.97;;;10.30;99.90;;;;;;5053392;28;20434;-70
2023/10/28 03:08:34;;;;;;;11.60;10.00;;;10.40;99.90;;;;;;5051738;28;20532;-70
2023/10/28 03:11:02;;;;;;;13.67;10.60;;;10.30;99.90;;;;;;5053110;28;20495;-70
2023/10/28 03:13:30;;;;;;;12.23;10.37;;;10.30;99.90;;;;;;5053533;28;20445;-70
2023/10/28 03:15:58;;;;;;;11.03;9.93;;;10.40;99.90;;;;;;5035246;28;20445;-70
2023/10/28 03:18:27;;;;;;;12.10;10.10;;;10.30;99.90;;;;;;5052972;28;20453;-70
2023/10/28 03:20:56;;;;;;;12.07;10.60;;;10.40;99.90;;;;;;5051731;28;20533;-70
2023/10/28 03:23:25;;;;;;;10.60;9.50;;;10.30;99.90;;;;;;5035113;28;20477;-70
2023/10/28 03:25:53;;;;;;;12.33;10.50;;;10.40;99.90;;;;;;5035090;28;20477;-70
2023/10/28 03:28:21;;;;;;;12.43;10.77;;;10.40;99.90;;;;;;5052824;28;20884;-70
2023/10/28 03:30:49;;;;;;;18.10;11.10;;;10.40;99.90;;;;;;5052968;28;20440;-70
2023/10/28 03:33:18;;;;;;;11.77;10.30;;;10.40;99.90;;;;;;5052908;28;20538;-70
2023/10/28 03:35:46;;;;;;;12.70;10.10;;;10.40;99.90;;;;;;5052782;28;20488;-70
2023/10/28 03:38:15;;;;;;;13.10;11.20;;;10.40;99.90;;;;;;5054601;28;20524;-70
2023/10/28 03:40:43;;;;;;;13.00;11.03;;;10.40;99.90;;;;;;5056788;28;20806;-70
2023/10/28 03:43:12;;;;;;;14.70;11.63;;;10.40;99.90;;;;;;5056721;28;20453;-70
2023/10/28 03:45:40;;;;;;;13.23;10.50;;;10.40;99.90;;;;;;5057209;28;20440;-70
2023/10/28 03:48:08;;;;;;;15.23;11.23;;;10.40;99.90;;;;;;5056513;28;20518;-70
2023/10/28 03:50:36;;;;;;;14.77;11.40;;;10.40;99.90;;;;;;5056521;28;20448;-69
2023/10/28 03:53:04;;;;;;;13.13;11.50;;;10.40;99.90;;;;;;5056612;28;20496;-70
2023/10/28 03:55:33;;;;;;;18.80;12.10;;;10.40;99.90;;;;;;5055250;28;20430;-70
2023/10/28 03:58:02;;;;;;;14.00;11.50;;;10.40;99.90;;;;;;5056349;28;21077;-70
2023/10/28 04:00:30;;;;;;;16.10;12.80;;;10.40;99.90;;;;;;5056686;28;20434;-68
2023/10/28 04:02:58;;;;;;;22.90;13.33;;;10.40;99.90;;;;;;5056639;28;20473;-70
2023/10/28 04:05:27;;;;;;;24.63;13.63;;;10.40;99.90;;;;;;5056506;28;20444;-70
2023/10/28 04:07:55;;;;;;;18.73;13.63;;;10.40;99.90;;;;;;5056744;28;20465;-70
2023/10/28 04:10:23;;;;;;;19.50;14.20;;;10.40;99.90;;;;;;5056523;28;20430;-70
2023/10/28 04:12:52;;;;;;;19.67;13.60;;;10.40;99.90;;;;;;5056431;28;20441;-70
2023/10/28 04:15:21;;;;;;;19.90;13.00;;;10.40;99.90;;;;;;5056430;28;20801;-70
2023/10/28 04:17:50;;;;;;;19.67;13.17;;;10.40;99.90;;;;;;5056953;28;20456;-70
2023/10/28 04:20:18;;;;;;;17.73;13.10;;;10.40;99.90;;;;;;5056415;28;20442;-70
2023/10/28 04:22:46;;;;;;;20.17;15.00;;;10.40;99.90;;;;;;5056022;28;20449;-70
2023/10/28 04:25:15;;;;;;;21.17;14.80;;;10.40;99.90;;;;;;5056334;28;20437;-70
2023/10/28 04:27:44;;;;;;;22.00;14.23;;;10.40;99.90;;;;;;5056212;28;20828;-70
2023/10/28 04:30:14;;;;;;;24.43;16.63;;;10.40;99.90;;;;;;5056253;28;20442;-70
2023/10/28 04:32:42;;;;;;;24.70;16.87;;;10.40;99.90;;;;;;5054638;28;20790;-70
2023/10/28 04:35:11;;;;;;;28.43;17.93;;;10.50;99.90;;;;;;5055597;28;20442;-70
2023/10/28 04:37:54;;;;;;;23.77;17.47;;;10.50;99.90;;;;;;5056017;28;20482;-70
2023/10/28 04:40:24;;;;;;;24.50;17.27;;;10.50;99.90;;;;;;5055664;28;20503;-70
2023/10/28 04:42:53;;;;;;;28.20;18.77;;;10.50;99.90;;;;;;5055692;28;20533;-70
2023/10/28 04:45:22;;;;;;;27.47;17.73;;;10.50;99.90;;;;;;5037823;28;20438;-70
2023/10/28 04:47:51;;;;;;;26.10;16.90;;;10.50;99.90;;;;;;5055276;28;20896;-70
2023/10/28 04:50:19;;;;;;;28.40;17.40;;;10.50;99.90;;;;;;5055760;28;20476;-70
2023/10/28 04:52:47;;;;;;;28.13;18.50;;;10.50;99.90;;;;;;5055486;28;20438;-70
2023/10/28 04:55:15;;;;;;;27.20;17.70;;;10.50;99.90;;;;;;5055442;28;20484;-70
2023/10/28 04:57:44;;;;;;;31.60;19.50;;;10.50;99.90;;;;;;5054130;28;20488;-70
2023/10/28 05:00:14;;;;;;;28.27;18.03;;;10.50;99.90;;;;;;5055392;28;20516;-70
2023/10/28 05:02:44;;;;;;;27.00;18.77;;;10.50;99.90;;;;;;5055320;28;20445;-70
2023/10/28 05:05:13;;;;;;;28.73;18.87;;;10.50;99.90;;;;;;5055579;28;20442;-70
2023/10/28 05:07:42;;;;;;;30.03;18.30;;;10.50;99.90;;;;;;5055030;28;20999;-70
2023/10/28 05:10:11;;;;;;;28.87;17.40;;;10.50;99.90;;;;;;5054182;28;20824;-70
2023/10/28 05:12:41;;;;;;;28.93;18.23;;;10.50;99.90;;;;;;5037466;28;20805;-70
2023/10/28 05:15:10;;;;;;;31.80;17.77;;;10.50;99.90;;;;;;5055343;28;20434;-70
2023/10/28 05:17:39;;;;;;;31.20;19.10;;;10.50;99.90;;;;;;5055065;28;20457;-70
2023/10/28 05:20:09;;;;;;;32.80;19.80;;;10.50;99.90;;;;;;5055186;28;20437;-69
2023/10/28 05:22:39;;;;;;;26.07;17.77;;;10.50;99.90;;;;;;5054915;28;20512;-70
2023/10/28 05:25:08;;;;;;;29.10;18.27;;;10.50;99.90;;;;;;5054768;28;20477;-70
2023/10/28 05:27:36;;;;;;;35.23;19.90;;;10.50;99.90;;;;;;5054963;28;20457;-70
2023/10/28 05:30:05;;;;;;;31.20;18.57;;;10.50;99.90;;;;;;5054653;28;20832;-70
2023/10/28 05:32:33;;;;;;;32.90;20.50;;;10.60;99.90;;;;;;5054937;28;20536;-70
2023/10/28 05:35:02;;;;;;;32.07;19.63;;;10.60;99.90;;;;;;5054877;28;20438;-70
2023/10/28 05:37:31;;;;;;;32.67;20.97;;;10.60;99.90;;;;;;5055047;28;20458;-70
2023/10/28 05:39:59;;;;;;;33.57;20.87;;;10.60;99.90;;;;;;5054568;28;20841;-70
2023/10/28 05:42:27;;;;;;;34.27;20.57;;;10.60;99.90;;;;;;5054755;28;20936;-68
2023/10/28 05:44:56;;;;;;;32.80;20.17;;;10.60;99.90;;;;;;5054513;28;20516;-70
2023/10/28 05:47:24;;;;;;;34.43;20.27;;;10.60;99.90;;;;;;5054948;28;20474;-70
2023/10/28 05:49:53;;;;;;;35.30;19.50;;;10.60;99.90;;;;;;5036381;28;20516;-70
2023/10/28 05:52:21;;;;;;;31.53;20.20;;;10.60;99.90;;;;;;5036446;28;20441;-70
2023/10/28 05:54:50;;;;;;;33.20;20.57;;;10.60;99.90;;;;;;5054510;28;20541;-70
2023/10/28 05:57:18;;;;;;;34.37;20.17;;;10.60;99.90;;;;;;5053415;28;20469;-70
2023/10/28 05:59:46;;;;;;;33.83;20.93;;;10.60;99.90;;;;;;5053589;28;20442;-70
2023/10/28 06:02:15;;;;;;;38.53;21.57;;;10.60;99.90;;;;;;5054088;28;20434;-70
2023/10/28 06:04:43;;;;;;;32.70;20.03;;;10.60;99.90;;;;;;5036370;28;20504;-70
2023/10/28 06:07:11;;;;;;;36.97;22.60;;;10.60;99.90;;;;;;5054222;28;20444;-70
2023/10/28 06:09:39;;;;;;;37.20;22.10;;;10.60;99.90;;;;;;5054463;28;20466;-70
2023/10/28 06:12:09;;;;;;;36.80;22.90;;;10.60;99.90;;;;;;5054198;28;20466;-70
2023/10/28 06:14:37;;;;;;;37.70;20.80;;;10.70;99.90;;;;;;5053887;28;20430;-69
2023/10/28 06:17:05;;;;;;;36.50;22.40;;;10.70;99.90;;;;;;5052635;28;20884;-70
2023/10/28 06:19:33;;;;;;;43.27;23.13;;;10.60;99.90;;;;;;5053686;28;20446;-70
2023/10/28 06:22:01;;;;;;;38.17;22.43;;;10.70;99.90;;;;;;5054330;28;20430;-70
2023/10/28 06:24:29;;;;;;;36.73;21.53;;;10.70;99.90;;;;;;5053709;28;20440;-70
2023/10/28 06:26:59;;;;;;;40.93;22.47;;;10.70;99.90;;;;;;5053794;28;20431;-70
2023/10/28 06:29:28;;;;;;;31.00;21.27;;;10.70;99.90;;;;;;5053562;28;21021;-70
2023/10/28 06:31:58;;;;;;;34.10;21.80;;;10.70;99.90;;;;;;5053788;28;20955;-70
2023/10/28 06:34:27;;;;;;;31.50;21.97;;;10.70;99.90;;;;;;5053431;28;20489;-70
2023/10/28 06:36:56;;;;;;;38.10;22.70;;;10.70;99.90;;;;;;5053410;28;20485;-70
2023/10/28 06:39:24;;;;;;;37.50;23.43;;;10.70;99.90;;;;;;5053394;28;20975;-68
2023/10/28 06:41:52;;;;;;;48.50;24.17;;;10.70;99.90;;;;;;5053508;28;20933;-70
2023/10/28 06:44:24;;;;;;;38.40;24.60;;;10.70;99.90;;;;;;5052482;28;20797;-70
2023/10/28 06:46:54;;;;;;;36.90;24.13;;;10.70;99.90;;;;;;5053749;28;20430;-70
2023/10/28 06:49:22;;;;;;;41.50;25.00;;;10.70;99.90;;;;;;5053237;28;20503;-70
2023/10/28 06:51:51;;;;;;;38.47;23.27;;;10.70;99.90;;;;;;5053336;28;20429;-70
2023/10/28 06:54:20;;;;;;;37.63;23.60;;;10.70;99.90;;;;;;5052760;28;20460;-70
2023/10/28 06:56:49;;;;;;;39.70;24.90;;;10.70;99.90;;;;;;5053290;28;20474;-70
2023/10/28 06:59:17;;;;;;;38.90;24.50;;;10.70;99.90;;;;;;5053115;28;20561;-70
2023/10/28 07:01:45;;;;;;;42.37;25.53;;;10.80;99.90;;;;;;5053440;28;20441;-70
2023/10/28 07:04:14;;;;;;;42.47;27.83;;;10.80;99.90;;;;;;5053176;28;20441;-70
2023/10/28 07:06:45;;;;;;;46.83;28.50;;;10.80;99.90;;;;;;5053156;28;20829;-70
2023/10/28 07:09:15;;;;;;;38.97;24.97;;;10.80;99.90;;;;;;5053071;28;20553;-70
2023/10/28 07:11:43;;;;;;;40.80;27.77;;;10.80;99.90;;;;;;5055551;28;20418;-70
2023/10/28 07:14:12;;;;;;;39.90;26.53;;;10.80;99.90;;;;;;5057308;28;20434;-70
2023/10/28 07:16:41;;;;;;;42.80;26.60;;;10.80;99.90;;;;;;5057209;28;20438;-70
2023/10/28 07:19:12;;;;;;;38.83;26.50;;;10.80;99.90;;;;;;5057166;28;20469;-70
2023/10/28 07:21:41;;;;;;;39.30;25.90;;;10.80;99.90;;;;;;5057510;28;20418;-70
2023/10/28 07:24:11;;;;;;;44.07;27.77;;;10.80;99.90;;;;;;5057621;28;20446;-70
2023/10/28 07:26:39;;;;;;;43.03;27.43;;;10.90;99.90;;;;;;5057070;28;20951;-70
2023/10/28 07:29:08;;;;;;;38.30;25.77;;;10.80;99.90;;;;;;5057162;28;20842;-70
2023/10/28 07:31:38;;;;;;;39.60;26.30;;;10.90;99.90;;;;;;5056912;28;20972;-70
2023/10/28 07:34:07;;;;;;;41.43;26.93;;;10.90;99.90;;;;;;5056936;28;20422;-70
2023/10/28 07:36:36;;;;;;;40.43;27.33;;;10.90;99.90;;;;;;5056937;28;20442;-70
2023/10/28 07:39:05;;;;;;;40.87;26.77;;;10.90;99.90;;;;;;5057408;28;20454;-69
2023/10/28 07:41:34;;;;;;;40.87;27.10;;;10.90;99.90;;;;;;5057196;28;20441;-70
2023/10/28 07:44:02;;;;;;;40.67;26.97;;;10.90;99.90;;;;;;5056343;28;20449;-70
2023/10/28 07:46:31;;;;;;;41.20;26.93;;;11.00;99.90;;;;;;5056928;28;20866;-70
2023/10/28 07:48:59;;;;;;;47.97;29.20;;;11.00;99.90;;;;;;5056990;28;20553;-69
2023/10/28 07:51:27;;;;;;;43.57;28.80;;;11.00;99.90;;;;;;5057169;28;20920;-69
2023/10/28 07:53:55;;;;;;;41.97;28.77;;;11.00;99.90;;;;;;5056119;28;20452;-70
2023/10/28 07:56:25;;;;;;;41.87;27.47;;;11.00;99.90;;;;;;5057320;28;21040;-70
2023/10/28 07:58:58;;;;;;;44.83;29.40;;;11.00;99.90;;;;;;5056765;28;20454;-69
2023/10/28 08:01:27;;;;;;;46.93;32.57;;;11.00;99.90;;;;;;5056915;28;20453;-70
2023/10/28 08:03:55;;;;;;;48.17;34.57;;;11.10;99.90;;;;;;5056714;28;20444;-70
2023/10/28 08:06:23;;;;;;;41.70;29.60;;;11.10;99.90;;;;;;5056674;28;20437;-70
2023/10/28 08:09:05;;;;;;;41.13;29.50;;;11.10;99.90;;;;;;5055300;28;20560;-69
2023/10/28 08:11:35;;;;;;;40.83;27.13;;;11.10;99.90;;;;;;5056829;28;20860;-69
2023/10/28 08:14:05;;;;;;;41.97;30.60;;;11.10;99.90;;;;;;5056362;28;20437;-69
2023/10/28 08:16:34;;;;;;;39.87;27.70;;;11.10;99.90;;;;;;5038608;28;20971;-69
2023/10/28 08:19:04;;;;;;;44.70;28.80;;;11.10;99.90;;;;;;5056501;28;20457;-69
2023/10/28 08:21:33;;;;;;;36.13;27.60;;;11.10;99.90;;;;;;5056320;28;20437;-69
2023/10/28 08:24:01;;;;;;;37.80;28.20;;;11.10;99.90;;;;;;5055903;28;20430;-69
2023/10/28 08:26:29;;;;;;;35.90;26.73;;;11.10;99.90;;;;;;5056355;28;20438;-69
2023/10/28 08:29:00;;;;;;;39.40;29.53;;;11.10;99.90;;;;;;5056927;28;20553;-69
2023/10/28 08:31:28;;;;;;;40.40;29.30;;;11.20;99.90;;;;;;5056392;28;20462;-69
2023/10/28 08:33:56;;;;;;;40.20;28.13;;;11.20;99.90;;;;;;5056641;28;20525;-69
2023/10/28 08:36:25;;;;;;;39.27;28.37;;;11.20;99.90;;;;;;5038710;28;20947;-69
2023/10/28 08:38:53;;;;;;;40.50;30.37;;;11.20;99.90;;;;;;5056523;28;20545;-69
2023/10/28 08:41:22;;;;;;;45.60;28.67;;;11.30;99.90;;;;;;5055214;28;20947;-69
2023/10/28 08:43:51;;;;;;;37.00;28.70;;;11.30;99.90;;;;;;5056810;28;20495;-69
2023/10/28 08:46:21;;;;;;;42.43;30.07;;;11.30;99.90;;;;;;5055060;28;20448;-69
2023/10/28 08:48:50;;;;;;;38.93;31.07;;;11.30;99.90;;;;;;5056348;28;20822;-68
2023/10/28 08:51:22;;;;;;;43.43;30.70;;;11.30;99.90;;;;;;5055563;28;20462;-69
2023/10/28 08:53:53;;;;;;;39.93;28.70;;;11.40;99.90;;;;;;5038433;28;20533;-69
2023/10/28 08:56:24;;;;;;;35.77;25.97;;;11.40;99.90;;;;;;5038708;28;20927;-69
2023/10/28 08:58:53;;;;;;;35.07;25.47;;;11.40;99.90;;;;;;5038316;28;20466;-69
2023/10/28 09:01:23;;;;;;;43.63;27.43;;;11.40;99.90;;;;;;5056649;28;20445;-69
2023/10/28 09:03:55;;;;;;;32.03;24.40;;;11.40;99.90;;;;;;5056462;28;20446;-69
2023/10/28 09:06:23;;;;;;;30.27;24.20;;;11.40;99.90;;;;;;5038719;28;20450;-69
2023/10/28 09:08:51;;;;;;;29.30;24.37;;;11.50;99.90;;;;;;5056638;28;20492;-69
2023/10/28 09:11:20;;;;;;;32.80;24.40;;;11.50;99.90;;;;;;5056214;28;20462;-69
2023/10/28 09:13:48;;;;;;;32.03;23.97;;;11.50;99.90;;;;;;5038573;28;20449;-69
2023/10/28 09:16:16;;;;;;;29.20;22.23;;;11.50;99.90;;;;;;5056139;28;20513;-69
2023/10/28 09:18:49;;;;;;;30.63;24.13;;;11.50;99.90;;;;;;5056153;28;20455;-69
2023/10/28 09:21:19;;;;;;;28.30;22.30;;;11.50;99.90;;;;;;5056469;28;20872;-69
2023/10/28 09:23:47;;;;;;;29.80;22.47;;;11.50;99.90;;;;;;5055228;28;20438;-69
2023/10/28 09:26:16;;;;;;;23.40;20.27;;;11.50;99.90;;;;;;5055871;28;20866;-69
2023/10/28 09:28:45;;;;;;;27.93;21.53;;;11.50;99.90;;;;;;5055891;28;20464;-69
2023/10/28 09:31:13;;;;;;;27.90;20.70;;;11.50;99.90;;;;;;5038370;28;20474;-69
2023/10/28 09:33:42;;;;;;;26.17;20.43;;;11.50;99.90;;;;;;5037686;28;20442;-69
2023/10/28 09:36:12;;;;;;;22.77;19.60;;;11.50;99.90;;;;;;5054981;28;20548;-69
2023/10/28 09:38:42;;;;;;;23.37;19.00;;;11.60;99.90;;;;;;5055746;28;20557;-69
2023/10/28 09:41:12;;;;;;;24.27;20.40;;;11.60;99.90;;;;;;5056191;28;20447;-69
2023/10/28 09:43:41;;;;;;;24.07;19.87;;;11.60;99.90;;;;;;5037672;28;20967;-69
2023/10/28 09:46:09;;;;;;;24.70;18.80;;;11.60;99.90;;;;;;5055993;28;20469;-69
2023/10/28 09:48:39;;;;;;;22.30;18.53;;;11.60;99.90;;;;;;5055493;28;20458;-69
2023/10/28 09:51:08;;;;;;;19.33;17.27;;;11.60;99.90;;;;;;5055654;28;20454;-69
2023/10/28 09:53:41;;;;;;;22.27;17.00;;;11.60;99.90;;;;;;5055919;28;20442;-69
2023/10/28 09:56:12;;;;;;;21.90;18.17;;;11.60;99.90;;;;;;5055821;28;20452;-69
2023/10/28 09:58:46;;;;;;;24.23;17.43;;;11.60;99.90;;;;;;5055405;28;20450;-69
2023/10/28 10:01:19;;;;;;;19.80;17.07;;;11.70;99.90;;;;;;5055995;28;20498;-69
2023/10/28 10:03:59;;;;;;;22.60;18.13;;;11.70;99.90;;;;;;5055209;28;20418;-69
2023/10/28 10:06:28;;;;;;;23.33;20.73;;;11.70;99.90;;;;;;5037541;28;20446;-69
2023/10/28 10:08:57;;;;;;;20.00;16.63;;;11.70;99.90;;;;;;5055264;28;20453;-69
2023/10/28 10:11:27;;;;;;;22.07;16.93;;;11.70;99.90;;;;;;5055528;28;21014;-69
2023/10/28 10:13:56;;;;;;;19.30;16.03;;;11.80;99.90;;;;;;5053923;28;20450;-69
2023/10/28 10:16:32;;;;;;;19.47;15.20;;;11.80;99.90;;;;;;5055241;28;20470;-69
2023/10/28 10:19:07;;;;;;;18.00;14.73;;;11.80;99.90;;;;;;5054902;28;20457;-69
2023/10/28 10:21:35;;;;;;;18.63;14.97;;;11.80;99.90;;;;;;5055154;28;20429;-69
2023/10/28 10:24:05;;;;;;;20.30;16.40;;;11.80;99.90;;;;;;5054609;28;20441;-69
2023/10/28 10:26:36;;;;;;;16.87;14.30;;;11.90;99.90;;;;;;5055160;28;20533;-69
2023/10/28 10:29:04;;;;;;;16.67;13.90;;;11.90;99.90;;;;;;5055756;28;20453;-69
2023/10/28 10:31:35;;;;;;;15.70;12.70;;;11.90;99.90;;;;;;5054880;28;20476;-69
2023/10/28 10:34:05;;;;;;;14.10;12.43;;;12.00;99.90;;;;;;5055006;28;20430;-69
2023/10/28 10:36:40;;;;;;;13.80;11.47;;;11.90;99.90;;;;;;5054729;28;20453;-69
2023/10/28 10:39:11;;;;;;;16.20;12.23;;;12.00;99.90;;;;;;5054824;28;20464;-69
2023/10/28 10:41:41;;;;;;;15.27;12.43;;;12.00;99.90;;;;;;5054580;28;20431;-69
2023/10/28 10:44:24;;;;;;;15.70;12.43;;;12.00;99.90;;;;;;5054532;28;20437;-69
2023/10/28 10:46:56;;;;;;;12.17;10.90;;;12.00;99.90;;;;;;5054700;28;20480;-69
2023/10/28 10:49:24;;;;;;;14.33;11.27;;;12.10;99.90;;;;;;5054786;28;20886;-69
2023/10/28 10:51:53;;;;;;;14.40;13.00;;;12.10;99.90;;;;;;5054678;28;20505;-69
2023/10/28 10:54:28;;;;;;;13.63;11.90;;;12.10;99.90;;;;;;5054633;28;20529;-69
2023/10/28 10:56:57;;;;;;;14.37;11.43;;;12.10;99.90;;;;;;5054681;28;20884;-69
2023/10/28 10:59:25;;;;;;;12.80;11.50;;;12.10;99.90;;;;;;5036364;28;20465;-69
2023/10/28 11:01:53;;;;;;;14.23;11.17;;;12.20;99.90;;;;;;5053469;28;20438;-69
2023/10/28 11:04:23;;;;;;;13.40;11.23;;;12.20;99.90;;;;;;5053099;28;21001;-69
2023/10/28 11:06:51;;;;;;;16.17;12.97;;;12.20;99.90;;;;;;5053582;28;20442;-69
2023/10/28 11:09:20;;;;;;;11.67;10.57;;;12.20;99.90;;;;;;5053662;28;20508;-69
2023/10/28 11:11:50;;;;;;;16.00;10.70;;;12.20;99.90;;;;;;5053047;28;20477;-69
2023/10/28 11:14:18;;;;;;;13.30;11.70;;;12.30;99.90;;;;;;5053479;28;20426;-69
2023/10/28 11:16:47;;;;;;;12.10;10.93;;;12.30;99.90;;;;;;5053285;28;20438;-69
2023/10/28 11:19:16;;;;;;;12.10;10.93;;;12.30;99.90;;;;;;5052940;28;20450;-69
2023/10/28 11:21:44;;;;;;;12.07;10.90;;;12.30;99.90;;;;;;5053194;28;20801;-69
2023/10/28 11:24:13;;;;;;;10.20;9.20;;;12.30;99.90;;;;;;5053325;28;20441;-69
2023/10/28 11:26:46;;;;;;;12.17;10.00;;;12.30;99.90;;;;;;5054399;28;20441;-69
2023/10/28 11:29:17;;;;;;;12.43;9.63;;;12.30;99.90;;;;;;5053734;28;20454;-69
2023/10/28 11:31:46;;;;;;;10.57;8.50;;;12.40;99.90;;;;;;5053378;28;20454;-69
2023/10/28 11:34:15;;;;;;;9.80;8.80;;;12.40;99.90;;;;;;5053536;28;20430;-69
2023/10/28 11:36:43;;;;;;;11.60;9.20;;;12.40;99.90;;;;;;5053214;28;20458;-69
2023/10/28 11:39:13;;;;;;;8.73;8.00;;;12.40;99.90;;;;;;5053151;28;20549;-69
2023/10/28 11:41:44;;;;;;;10.57;8.50;;;12.40;99.90;;;;;;5053514;28;20904;-69
2023/10/28 11:44:13;;;;;;;10.20;9.20;;;12.40;99.90;;;;;;5053481;28;20513;-69
2023/10/28 11:46:42;;;;;;;9.60;8.60;;;12.50;99.90;;;;;;5035477;28;20457;-69
2023/10/28 11:49:10;;;;;;;14.30;11.67;;;12.50;99.90;;;;;;5053213;28;20536;-69
2023/10/28 11:51:38;;;;;;;8.87;8.00;;;12.50;99.90;;;;;;5053354;28;20448;-69
2023/10/28 11:54:07;;;;;;;7.63;6.63;;;12.50;99.90;;;;;;5053894;28;20441;-69
2023/10/28 11:56:35;;;;;;;9.30;7.27;;;12.50;99.90;;;;;;5035628;28;20492;-69
2023/10/28 11:59:03;;;;;;;7.73;7.03;;;12.60;99.90;;;;;;5056331;28;20465;-69
2023/10/28 12:01:32;;;;;;;8.07;7.27;;;12.60;99.90;;;;;;5057108;28;20445;-69
2023/10/28 12:04:03;;;;;;;7.93;7.13;;;12.60;99.90;;;;;;5057022;28;20808;-69
2023/10/28 12:06:33;;;;;;;8.60;7.27;;;12.60;99.90;;;;;;5057611;28;20410;-69
2023/10/28 12:09:04;;;;;;;8.70;7.70;;;12.60;99.90;;;;;;5039283;28;21022;-69
2023/10/28 12:11:33;;;;;;;8.43;7.13;;;12.60;99.90;;;;;;5057239;28;20452;-69
2023/10/28 12:14:01;;;;;;;9.53;7.77;;;12.60;99.90;;;;;;5057158;28;20515;-69
2023/10/28 12:16:31;;;;;;;9.07;7.30;;;12.70;99.90;;;;;;5057341;28;20442;-69
2023/10/28 12:18:59;;;;;;;8.17;7.43;;;12.70;99.90;;;;;;5057210;28;20494;-69
2023/10/28 12:21:30;;;;;;;7.30;6.60;;;12.70;99.90;;;;;;5057606;28;20540;-69
2023/10/28 12:23:58;;;;;;;8.43;6.60;;;12.70;99.90;;;;;;5039645;28;20492;-69
2023/10/28 12:26:27;;;;;;;8.33;6.87;;;12.70;99.90;;;;;;5056944;28;20525;-69
2023/10/28 12:28:55;;;;;;;8.37;7.23;;;12.70;99.90;;;;;;5057054;28;20545;-69
2023/10/28 12:31:23;;;;;;;7.30;6.50;;;12.70;99.90;;;;;;5057254;28;20445;-69
2023/10/28 12:33:52;;;;;;;7.53;6.83;;;12.70;99.90;;;;;;5057151;28;20476;-69
2023/10/28 12:36:20;;;;;;;7.87;7.00;;;12.70;99.90;;;;;;5057364;28;20504;-69
2023/10/28 12:38:49;;;;;;;6.97;6.20;;;12.70;99.90;;;;;;5056707;28;20458;-69
2023/10/28 12:41:17;;;;;;;7.13;5.83;;;12.70;99.90;;;;;;5057120;28;20985;-69
2023/10/28 12:43:46;;;;;;;7.20;6.03;;;12.70;99.90;;;;;;5056857;28;20434;-69